Terminal Aerodrome Forecast
Issued by NWS

Home | Current Version | Previous Version | Text Only | Print | Product List | Glossary On
Versions: 1 2 3 4 5 6 7 8 9 10 11 12 13 14 15 16
000
FTUS46 KLOX 290500
TAFPRB
TAF
KPRB 290525Z 2906/3006 31008KT P6SM SKC
     FM290900 VRB03KT P6SM SCT250
     FM291600 32007KT P6SM SCT250
     FM292200 21012KT P6SM SKC
     FM300400 31008KT P6SM SKC=

USA.gov is the U.S. government's official web portal to all federal, state and local government web resources and services.